Terminal Aerodrome Forecast
Issued by NWS Hastings, NE

Home | Current Version | Previous Version | Text Only | Print | Product List | Glossary On
Versions: 1 2 3 4 5 6 7 8 9 10 11 12 13 14 15 16 17 18 19 20 21 22 23 24 25
000
FTUS43 KGID 311720
TAFGRI
TAF
KGRI 311720Z 3118/0118 19012KT P6SM FEW050 BKN070
     FM312200 16008KT P6SM VCSH BKN050
     FM010300 VRB06KT P6SM SCT050
     FM011500 08010KT P6SM SCT120=

USA.gov is the U.S. government's official web portal to all federal, state and local government web resources and services.